Time;durP1;ratioP1;P1;durP2;ratioP2;P2;SDS_P1;SDS_P2;PMS_P1;PMS_P2;Temp;Humidity;BMP_temperature;BMP_pressure;BME280_temperature;BME280_humidity;BME280_pressure;Samples;Min_cycle;Max_cycle;Signal;HPM_P1;HPM_P2
2022/08/22 00:00:57;;;;;;;3.53;1.63;;;17.90;99.90;;;;;;5063077;28;20024;-84
2022/08/22 00:03:42;;;;;;;4.72;1.85;;;17.90;99.90;;;;;;5072708;28;20028;-84
2022/08/22 00:06:29;;;;;;;5.07;1.70;;;17.90;99.90;;;;;;5063815;28;20046;-84
2022/08/22 00:09:28;;;;;;;4.45;1.52;;;17.80;99.90;;;;;;5065910;28;20028;-84
2022/08/22 00:12:23;;;;;;;4.15;1.48;;;17.80;99.90;;;;;;5059362;28;20050;-84
2022/08/22 00:15:07;;;;;;;6.50;2.20;;;17.70;99.90;;;;;;5073902;28;20471;-84
2022/08/22 00:17:52;;;;;;;5.00;1.75;;;17.70;99.90;;;;;;5059652;28;20025;-84
2022/08/22 00:20:23;;;;;;;4.45;1.90;;;17.70;99.90;;;;;;5067870;28;20029;-84
2022/08/22 00:23:10;;;;;;;4.95;1.50;;;17.70;99.90;;;;;;5065298;28;20313;-83
2022/08/22 00:26:03;;;;;;;4.00;1.55;;;17.70;99.90;;;;;;5059580;28;20032;-83
2022/08/22 00:28:37;;;;;;;5.38;1.35;;;17.70;99.90;;;;;;5064556;28;20028;-84
2022/08/22 00:31:27;;;;;;;6.22;1.75;;;17.70;99.90;;;;;;5064398;28;20524;-84
2022/08/22 00:34:27;;;;;;;2.88;1.40;;;17.70;99.90;;;;;;5066096;28;20017;-84
2022/08/22 00:37:01;;;;;;;3.90;1.48;;;17.70;99.90;;;;;;5069256;28;20048;-84
2022/08/22 00:39:44;;;;;;;3.35;1.52;;;17.70;99.90;;;;;;5061037;28;20079;-84
2022/08/22 00:42:41;;;;;;;2.55;1.38;;;17.70;99.90;;;;;;5069567;28;20021;-84
2022/08/22 00:45:32;;;;;;;3.80;1.38;;;17.80;99.90;;;;;;5079838;28;20025;-84
2022/08/22 00:48:17;;;;;;;4.27;1.77;;;17.70;99.90;;;;;;5065035;28;20012;-84
2022/08/22 00:51:00;;;;;;;3.55;1.27;;;17.60;99.90;;;;;;5076288;28;20277;-85
2022/08/22 00:54:03;;;;;;;2.28;1.05;;;17.60;99.90;;;;;;5072099;28;20033;-84
2022/08/22 00:56:53;;;;;;;5.47;1.60;;;17.50;99.90;;;;;;5060824;28;20109;-84
2022/08/22 00:59:36;;;;;;;3.85;1.38;;;17.50;99.90;;;;;;5069358;28;20583;-83
2022/08/22 01:02:09;;;;;;;3.95;1.73;;;17.50;99.90;;;;;;5062090;28;20040;-83
2022/08/22 01:04:59;;;;;;;4.10;2.03;;;17.50;99.90;;;;;;5067558;28;20040;-83
2022/08/22 01:07:48;;;;;;;3.10;1.25;;;17.50;99.90;;;;;;5070594;28;20095;-84
2022/08/22 01:10:44;;;;;;;3.47;1.70;;;17.50;99.90;;;;;;5063978;28;20025;-83
2022/08/22 01:13:39;;;;;;;4.18;1.58;;;17.40;99.90;;;;;;5064311;28;20128;-83
2022/08/22 01:16:31;;;;;;;4.32;1.98;;;17.40;99.90;;;;;;5033349;28;20154;-83
2022/08/22 01:19:18;;;;;;;4.53;1.50;;;17.30;99.90;;;;;;5065235;28;20032;-84
2022/08/22 01:22:08;;;;;;;3.45;1.40;;;17.30;99.90;;;;;;5065076;28;20033;-83
2022/08/22 01:25:17;;;;;;;4.90;1.65;;;17.30;99.90;;;;;;5071851;28;20025;-84
2022/08/22 01:28:14;;;;;;;5.22;1.50;;;17.30;99.90;;;;;;5074559;28;20095;-84
2022/08/22 01:31:11;;;;;;;4.75;2.03;;;17.30;99.90;;;;;;5062494;28;20025;-84
2022/08/22 01:33:55;;;;;;;3.15;1.38;;;17.20;99.90;;;;;;5070168;28;20514;-83
2022/08/22 01:36:42;;;;;;;5.05;1.63;;;17.20;99.90;;;;;;5069407;28;20033;-84
2022/08/22 01:39:20;;;;;;;3.05;1.27;;;17.20;99.90;;;;;;5062570;28;20024;-84
2022/08/22 01:42:00;;;;;;;4.55;1.50;;;17.10;99.90;;;;;;5075844;28;20028;-83
2022/08/22 01:44:43;;;;;;;4.07;1.50;;;17.10;99.90;;;;;;5079681;28;20052;-83
2022/08/22 01:47:28;;;;;;;3.22;1.40;;;17.00;99.90;;;;;;5080582;28;20035;-84
2022/08/22 01:50:21;;;;;;;3.50;1.55;;;17.00;99.90;;;;;;5065478;28;20008;-84
2022/08/22 01:52:57;;;;;;;3.72;1.60;;;16.90;99.90;;;;;;5068428;28;20535;-83
2022/08/22 01:55:23;;;;;;;5.20;2.25;;;16.90;99.90;;;;;;5068022;28;20473;-83
2022/08/22 01:57:56;;;;;;;5.65;2.20;;;16.80;99.90;;;;;;5066414;28;20039;-84
2022/08/22 02:00:24;;;;;;;4.05;1.50;;;16.80;99.90;;;;;;5068281;28;20024;-83
2022/08/22 02:03:16;;;;;;;3.97;1.70;;;16.70;99.90;;;;;;5062404;28;20039;-83
2022/08/22 02:06:06;;;;;;;5.35;1.73;;;16.70;99.90;;;;;;5060132;28;20528;-83
2022/08/22 02:08:50;;;;;;;3.67;1.63;;;16.70;99.90;;;;;;5062656;28;20029;-83
2022/08/22 02:11:56;;;;;;;4.82;1.42;;;16.60;99.90;;;;;;5062092;28;20039;-83
2022/08/22 02:14:32;;;;;;;4.65;1.70;;;16.60;99.90;;;;;;5013232;28;20034;-83
2022/08/22 02:17:25;;;;;;;4.43;1.42;;;16.60;99.90;;;;;;5012771;28;20038;-84
2022/08/22 02:20:00;;;;;;;3.70;1.35;;;16.60;99.90;;;;;;5052354;28;20055;-83
2022/08/22 02:22:59;;;;;;;5.20;1.52;;;16.60;99.90;;;;;;5069124;28;20059;-84
2022/08/22 02:25:33;;;;;;;3.83;1.60;;;16.50;99.90;;;;;;5061260;28;20547;-84
2022/08/22 02:28:14;;;;;;;4.47;1.80;;;16.60;99.90;;;;;;5055804;28;20013;-84
2022/08/22 02:31:03;;;;;;;3.45;1.50;;;16.50;99.90;;;;;;5073140;28;20021;-83
2022/08/22 02:33:37;;;;;;;3.67;1.77;;;16.50;99.90;;;;;;5066667;28;20068;-84
2022/08/22 02:36:19;;;;;;;5.80;1.63;;;16.50;99.90;;;;;;5070404;28;20024;-83
2022/08/22 02:38:55;;;;;;;;;;;16.40;99.90;;;;;;5067877;28;20024;-83
2022/08/22 02:41:33;;;;;;;3.88;1.35;;;16.40;99.90;;;;;;5067304;28;19928;-83
2022/08/22 02:44:12;;;;;;;2.58;1.25;;;16.40;99.90;;;;;;5057252;28;20016;-84
2022/08/22 02:46:48;;;;;;;6.10;1.63;;;16.40;99.90;;;;;;5056273;28;20047;-83
2022/08/22 02:49:14;;;;;;;4.72;1.45;;;16.30;99.90;;;;;;5062604;28;20084;-84
2022/08/22 02:52:24;;;;;;;3.72;1.70;;;16.30;99.90;;;;;;5060419;28;20143;-83
2022/08/22 02:55:07;;;;;;;5.20;1.80;;;16.30;99.90;;;;;;5057053;28;20028;-83
2022/08/22 02:57:46;;;;;;;4.00;1.88;;;16.30;99.90;;;;;;5063254;28;20033;-83
2022/08/22 03:00:26;;;;;;;3.45;1.30;;;16.30;99.90;;;;;;5066692;28;20016;-83
2022/08/22 03:03:13;;;;;;;3.83;1.45;;;16.20;99.90;;;;;;5060065;28;20025;-83
2022/08/22 03:05:44;;;;;;;4.55;1.73;;;16.20;99.90;;;;;;5077971;22;20098;-83
2022/08/22 03:08:30;;;;;;;7.07;2.00;;;16.20;99.90;;;;;;5069775;28;20027;-82
2022/08/22 03:11:21;;;;;;;4.00;1.55;;;16.20;99.90;;;;;;5062019;28;20038;-82
2022/08/22 03:13:59;;;;;;;3.65;1.55;;;16.20;99.90;;;;;;5070896;28;20047;-82
2022/08/22 03:16:48;;;;;;;4.82;1.55;;;16.20;99.90;;;;;;5083684;28;20093;-82
2022/08/22 03:19:21;;;;;;;4.25;1.70;;;16.10;99.90;;;;;;5091576;22;20127;-85
2022/08/22 03:22:12;;;;;;;4.50;1.55;;;16.10;99.90;;;;;;5060706;28;20389;-84
2022/08/22 03:24:54;;;;;;;5.65;1.70;;;16.10;99.90;;;;;;5074771;28;20043;-84
2022/08/22 03:27:39;;;;;;;4.47;2.00;;;16.10;99.90;;;;;;5076463;28;20035;-84
2022/08/22 03:30:27;;;;;;;3.00;1.45;;;16.00;99.90;;;;;;5074135;28;20130;-84
2022/08/22 03:33:11;;;;;;;2.85;1.50;;;16.00;99.90;;;;;;5077076;28;20407;-84
2022/08/22 03:35:45;;;;;;;4.03;1.60;;;15.90;99.90;;;;;;5070915;28;20025;-84
2022/08/22 03:38:32;;;;;;;4.38;2.17;;;15.90;99.90;;;;;;5076584;28;20013;-84
2022/08/22 03:41:24;;;;;;;3.53;1.50;;;15.80;99.90;;;;;;5068541;28;20113;-84
2022/08/22 03:44:02;;;;;;;4.50;1.92;;;15.80;99.90;;;;;;5071461;28;20507;-84
2022/08/22 03:46:51;;;;;;;3.15;1.40;;;15.80;99.90;;;;;;5072390;28;20527;-84
2022/08/22 03:49:54;;;;;;;6.05;1.90;;;15.80;99.90;;;;;;5070864;28;20096;-83
2022/08/22 03:53:06;;;;;;;4.10;1.75;;;15.80;99.90;;;;;;5071391;28;20515;-83
2022/08/22 03:56:02;;;;;;;3.58;1.20;;;15.70;99.90;;;;;;5074128;28;20056;-84
2022/08/22 03:58:28;;;;;;;3.90;1.42;;;15.70;99.90;;;;;;5075857;28;20025;-84
2022/08/22 04:01:17;;;;;;;4.40;1.92;;;15.60;99.90;;;;;;5071845;28;20031;-84
2022/08/22 04:04:09;;;;;;;5.95;1.85;;;15.60;99.90;;;;;;5067893;28;20017;-84
2022/08/22 04:07:04;;;;;;;3.78;1.92;;;15.50;99.90;;;;;;5075767;28;20159;-84
2022/08/22 04:10:10;;;;;;;3.80;1.52;;;15.50;99.90;;;;;;5072770;28;20029;-84
2022/08/22 04:13:02;;;;;;;6.20;1.83;;;15.50;99.90;;;;;;5075312;28;20040;-83
2022/08/22 04:16:11;;;;;;;3.60;1.48;;;15.50;99.90;;;;;;5072308;28;20589;-84
2022/08/22 04:18:49;;;;;;;4.38;1.80;;;15.50;99.90;;;;;;5073669;28;20552;-85
2022/08/22 04:21:24;;;;;;;3.40;1.48;;;15.40;99.90;;;;;;5063134;28;20052;-84
2022/08/22 04:24:08;;;;;;;3.25;1.52;;;15.40;99.90;;;;;;5076186;28;20027;-84
2022/08/22 04:26:56;;;;;;;3.95;1.52;;;15.40;99.90;;;;;;5080355;28;20084;-84
2022/08/22 04:29:47;;;;;;;4.70;1.40;;;15.30;99.90;;;;;;5076131;28;20045;-84
2022/08/22 04:32:28;;;;;;;4.65;1.95;;;15.30;99.90;;;;;;5083654;28;20027;-84
2022/08/22 04:35:05;;;;;;;6.10;1.60;;;15.30;99.90;;;;;;5077806;28;20362;-84
2022/08/22 04:37:35;;;;;;;3.55;1.75;;;15.20;99.90;;;;;;5081992;28;20047;-84
2022/08/22 04:40:06;;;;;;;7.00;1.90;;;15.20;99.90;;;;;;5080076;28;20203;-84
2022/08/22 04:42:39;;;;;;;4.10;1.58;;;15.20;99.90;;;;;;5081965;28;20024;-84
2022/08/22 04:45:16;;;;;;;3.33;1.50;;;15.20;99.90;;;;;;5082288;28;20078;-84
2022/08/22 04:47:55;;;;;;;4.72;1.60;;;15.20;99.90;;;;;;5081623;28;20032;-84
2022/08/22 04:50:43;;;;;;;3.53;1.40;;;15.20;99.90;;;;;;5073715;28;20023;-83
2022/08/22 04:53:48;;;;;;;3.88;1.70;;;15.20;99.90;;;;;;5078546;28;20020;-85
2022/08/22 04:56:32;;;;;;;2.92;1.25;;;15.20;99.90;;;;;;5053499;28;20041;-84
2022/08/22 04:59:02;;;;;;;4.43;1.67;;;15.20;99.90;;;;;;5084819;28;20027;-84
2022/08/22 05:01:53;;;;;;;3.45;1.35;;;15.30;99.90;;;;;;5090810;28;20071;-84
2022/08/22 05:04:24;;;;;;;2.60;1.23;;;15.30;99.90;;;;;;5081332;28;20041;-84
2022/08/22 05:07:04;;;;;;;3.97;1.45;;;15.30;99.90;;;;;;5081232;28;20024;-84
2022/08/22 05:09:38;;;;;;;3.55;1.52;;;15.40;99.90;;;;;;5081064;28;20081;-85
2022/08/22 05:12:13;;;;;;;3.80;1.42;;;15.40;99.90;;;;;;5078802;28;20016;-85
2022/08/22 05:14:41;;;;;;;4.13;1.65;;;15.40;99.90;;;;;;5079471;28;20024;-84
2022/08/22 05:17:11;;;;;;;4.78;1.70;;;15.50;99.90;;;;;;5077503;28;20096;-84
2022/08/22 05:19:40;;;;;;;3.78;1.65;;;15.60;99.90;;;;;;5078856;28;20055;-85
2022/08/22 05:22:13;;;;;;;4.00;1.67;;;15.60;99.90;;;;;;5074367;28;20066;-84
2022/08/22 05:24:43;;;;;;;4.13;1.50;;;15.60;99.90;;;;;;5077264;28;20029;-84
2022/08/22 05:27:17;;;;;;;3.55;1.40;;;15.60;99.90;;;;;;5078425;28;20024;-84
2022/08/22 05:29:46;;;;;;;5.72;2.00;;;15.70;99.90;;;;;;5079602;28;20121;-84
2022/08/22 05:32:21;;;;;;;4.90;1.70;;;15.80;99.90;;;;;;5072933;28;20020;-85
2022/08/22 05:34:49;;;;;;;3.53;1.55;;;15.80;99.90;;;;;;5079740;28;20553;-84
2022/08/22 05:37:18;;;;;;;3.40;1.50;;;15.80;99.90;;;;;;5078829;28;20073;-84
2022/08/22 05:40:10;;;;;;;3.88;1.40;;;15.80;99.90;;;;;;5079454;28;20125;-84
2022/08/22 05:42:36;;;;;;;3.13;1.30;;;15.80;99.90;;;;;;5096441;28;20024;-85
2022/08/22 05:45:05;;;;;;;5.15;1.15;;;15.90;99.90;;;;;;5079906;28;20052;-84
2022/08/22 05:47:45;;;;;;;3.58;1.40;;;16.00;99.90;;;;;;5080141;28;20326;-82
2022/08/22 05:50:28;;;;;;;3.75;1.60;;;16.00;99.90;;;;;;5072771;28;20021;-82
2022/08/22 05:53:10;;;;;;;6.03;1.70;;;16.10;99.90;;;;;;5075793;28;20023;-82
2022/08/22 05:55:49;;;;;;;3.53;1.40;;;16.10;99.90;;;;;;5075874;28;20107;-84
2022/08/22 05:58:33;;;;;;;3.50;1.60;;;16.20;99.90;;;;;;5076581;28;20489;-84
2022/08/22 06:01:14;;;;;;;3.20;1.33;;;16.40;99.90;;;;;;5076417;28;20047;-82
2022/08/22 06:04:06;;;;;;;2.17;1.02;;;16.30;99.90;;;;;;5072229;28;20025;-84
2022/08/22 06:06:45;;;;;;;3.28;1.40;;;16.40;99.90;;;;;;5075098;28;20059;-83
2022/08/22 06:09:43;;;;;;;4.30;1.42;;;16.40;99.90;;;;;;5073967;28;20112;-83
2022/08/22 06:12:12;;;;;;;3.47;1.50;;;16.40;99.90;;;;;;5071449;28;20009;-84
2022/08/22 06:14:57;;;;;;;4.18;1.27;;;16.50;99.90;;;;;;5076850;28;20028;-83
2022/08/22 06:17:34;;;;;;;3.08;1.38;;;16.50;99.90;;;;;;5058780;28;20028;-84
2022/08/22 06:20:01;;;;;;;3.15;1.33;;;16.50;99.90;;;;;;5072452;28;20501;-83
2022/08/22 06:22:31;;;;;;;3.65;1.48;;;16.40;99.90;;;;;;5074587;28;20131;-83
2022/08/22 06:25:11;;;;;;;3.65;1.60;;;16.60;99.90;;;;;;5080777;28;20543;-83
2022/08/22 06:27:37;;;;;;;5.32;1.63;;;16.70;99.90;;;;;;5078927;28;20032;-84
2022/08/22 06:30:04;;;;;;;3.83;1.73;;;16.90;99.90;;;;;;5076864;28;20020;-84
2022/08/22 06:32:40;;;;;;;3.20;1.52;;;16.60;99.90;;;;;;5075751;28;20116;-84
2022/08/22 06:35:15;;;;;;;4.88;1.70;;;16.40;99.90;;;;;;5067355;28;20085;-84
2022/08/22 06:37:44;;;;;;;3.50;1.30;;;16.30;99.90;;;;;;5073405;28;20050;-84
2022/08/22 06:40:14;;;;;;;5.97;1.50;;;16.30;99.90;;;;;;5074654;28;20074;-84
2022/08/22 06:42:47;;;;;;;3.20;1.50;;;16.40;99.90;;;;;;5064722;28;20031;-85
2022/08/22 06:45:26;;;;;;;3.78;1.40;;;16.30;99.90;;;;;;5076887;28;20080;-85
2022/08/22 06:47:58;;;;;;;3.05;1.63;;;16.50;99.90;;;;;;5070456;28;20025;-84
2022/08/22 06:50:26;;;;;;;;;;;16.60;99.90;;;;;;5075540;28;20104;-84
2022/08/22 06:53:04;;;;;;;3.33;1.13;;;16.80;99.90;;;;;;5071372;28;19956;-85
2022/08/22 06:55:30;;;;;;;2.90;1.10;;;17.10;99.90;;;;;;5074577;28;20021;-85
2022/08/22 06:58:02;;;;;;;3.67;1.30;;;17.00;99.90;;;;;;5084352;28;20504;-85
2022/08/22 07:00:28;;;;;;;;;;;17.10;99.90;;;;;;5085184;28;20059;-84
2022/08/22 07:03:01;;;;;;;3.30;1.38;;;17.30;99.90;;;;;;5070307;28;19904;-85
2022/08/22 07:05:33;;;;;;;3.22;1.30;;;17.60;99.90;;;;;;5075247;28;20028;-84
2022/08/22 07:08:08;;;;;;;3.00;1.25;;;17.60;99.90;;;;;;5078903;28;20020;-84
2022/08/22 07:10:35;;;;;;;3.83;1.60;;;17.40;99.90;;;;;;5077559;28;20016;-84
2022/08/22 07:13:07;;;;;;;3.85;1.45;;;17.50;99.90;;;;;;5078573;28;20019;-84
2022/08/22 07:15:36;;;;;;;2.65;0.90;;;17.40;99.90;;;;;;5077516;28;20020;-85
2022/08/22 07:18:07;;;;;;;2.75;1.25;;;17.50;99.90;;;;;;5074800;28;20023;-84
2022/08/22 07:20:46;;;;;;;3.30;1.20;;;17.60;99.90;;;;;;5071483;28;20055;-84
2022/08/22 07:23:32;;;;;;;2.92;1.13;;;17.90;99.90;;;;;;5080219;28;20043;-85
2022/08/22 07:26:31;;;;;;;5.05;1.75;;;18.20;99.90;;;;;;5076909;28;20024;-85
2022/08/22 07:29:32;;;;;;;4.20;1.45;;;18.50;99.90;;;;;;5077222;28;20025;-84
2022/08/22 07:32:11;;;;;;;3.58;1.63;;;18.70;99.90;;;;;;5075150;28;20020;-84
2022/08/22 07:35:05;;;;;;;2.60;0.93;;;18.90;99.90;;;;;;5073102;28;20035;-85
2022/08/22 07:37:53;;;;;;;4.10;1.48;;;19.20;99.90;;;;;;5076704;28;20070;-84
2022/08/22 07:40:34;;;;;;;4.00;1.48;;;19.40;99.90;;;;;;5073991;28;20573;-85
2022/08/22 07:43:26;;;;;;;3.67;1.35;;;19.30;99.90;;;;;;5075225;28;20021;-85
2022/08/22 07:46:28;;;;;;;3.33;1.27;;;19.40;99.90;;;;;;5079707;28;20032;-85
2022/08/22 07:49:12;;;;;;;3.50;1.00;;;19.60;99.90;;;;;;5076992;28;20019;-85
2022/08/22 07:51:45;;;;;;;3.10;1.20;;;19.90;99.90;;;;;;5079006;28;20017;-85
2022/08/22 07:54:15;;;;;;;2.25;1.17;;;20.10;99.90;;;;;;5074576;28;20027;-85
2022/08/22 07:56:51;;;;;;;3.60;1.20;;;20.30;99.90;;;;;;5077359;28;20086;-85
2022/08/22 07:59:18;;;;;;;3.55;1.25;;;20.40;99.90;;;;;;5075553;28;20021;-85
2022/08/22 08:01:57;;;;;;;3.33;1.17;;;20.60;99.90;;;;;;5082155;28;20028;-85
2022/08/22 08:04:27;;;;;;;2.47;1.10;;;20.80;99.90;;;;;;5075359;28;20033;-85
2022/08/22 08:06:58;;;;;;;2.27;1.00;;;20.90;99.90;;;;;;5067437;28;20020;-85
2022/08/22 08:09:31;;;;;;;3.58;1.30;;;20.90;99.90;;;;;;5080826;28;20285;-85
2022/08/22 08:11:59;;;;;;;5.95;1.05;;;21.20;99.90;;;;;;5075070;28;20059;-86
2022/08/22 08:14:25;;;;;;;2.25;0.90;;;21.30;99.90;;;;;;5081668;28;20034;-85
2022/08/22 08:17:19;;;;;;;4.28;1.27;;;21.10;99.90;;;;;;5079789;28;20492;-85
2022/08/22 08:19:46;;;;;;;2.30;1.00;;;21.20;99.90;;;;;;5080159;28;20040;-85
2022/08/22 08:22:18;;;;;;;2.55;0.80;;;21.30;99.90;;;;;;5075358;28;20036;-85
2022/08/22 08:24:44;;;;;;;4.05;1.00;;;21.50;99.90;;;;;;5096292;28;20031;-86
2022/08/22 08:30:33;;;;;;;2.50;0.77;;;21.70;99.90;;;;;;5075520;28;20038;-85
2022/08/22 08:33:00;;;;;;;2.80;1.23;;;22.00;99.90;;;;;;5076647;28;20016;-86
2022/08/22 08:35:31;;;;;;;2.83;1.13;;;22.10;99.90;;;;;;5079921;28;20088;-86
2022/08/22 08:38:19;;;;;;;2.58;1.05;;;22.10;99.90;;;;;;5080930;28;20491;-85
2022/08/22 08:41:03;;;;;;;2.22;0.90;;;22.10;99.90;;;;;;5073818;28;20036;-85
2022/08/22 08:43:49;;;;;;;2.00;0.90;;;22.30;99.90;;;;;;5076535;28;20025;-85
2022/08/22 08:46:48;;;;;;;2.35;1.20;;;22.60;99.90;;;;;;5075250;28;20072;-85
2022/08/22 08:49:49;;;;;;;3.15;1.20;;;22.80;99.90;;;;;;5093781;28;20013;-86
2022/08/22 08:52:30;;;;;;;2.53;1.02;;;23.00;99.90;;;;;;5076914;28;20035;-86
2022/08/22 08:54:59;;;;;;;4.07;1.00;;;23.10;99.90;;;;;;5072507;28;20035;-86
2022/08/22 08:57:51;;;;;;;4.22;1.42;;;23.10;99.90;;;;;;5078886;28;20051;-86
2022/08/22 09:00:42;;;;;;;2.88;1.08;;;23.20;99.90;;;;;;5075181;28;20024;-85
2022/08/22 09:03:23;;;;;;;2.60;1.07;;;23.40;99.90;;;;;;5077825;28;20020;-85
2022/08/22 09:06:05;;;;;;;3.13;1.02;;;23.60;99.90;;;;;;5078299;28;20016;-86
2022/08/22 09:09:10;;;;;;;2.13;1.05;;;23.70;99.80;;;;;;5077635;28;20017;-86
2022/08/22 09:12:07;;;;;;;3.05;1.17;;;23.90;99.90;;;;;;5077466;28;20096;-85
2022/08/22 09:14:48;;;;;;;2.03;0.95;;;24.10;99.60;;;;;;5082365;28;20039;-85
2022/08/22 09:17:46;;;;;;;2.17;0.77;;;24.30;99.00;;;;;;5073569;28;20020;-86
2022/08/22 09:20:11;;;;;;;2.55;1.10;;;24.30;99.10;;;;;;5066957;22;20185;-83
2022/08/22 09:22:58;;;;;;;3.53;1.25;;;24.40;99.20;;;;;;5063953;28;20024;-83
2022/08/22 09:25:53;;;;;;;2.22;1.05;;;24.60;98.50;;;;;;5063324;28;20060;-83
2022/08/22 09:28:52;;;;;;;2.92;0.90;;;24.70;98.70;;;;;;5077840;28;20035;-83
2022/08/22 09:31:24;;;;;;;3.15;1.10;;;24.80;98.30;;;;;;5066338;28;20044;-83
2022/08/22 09:34:05;;;;;;;2.42;1.08;;;24.90;98.30;;;;;;5073948;28;20028;-83
2022/08/22 09:36:47;;;;;;;3.38;1.17;;;25.00;98.40;;;;;;5070362;28;20056;-83
2022/08/22 09:39:24;;;;;;;2.22;0.85;;;25.00;97.50;;;;;;5071827;28;20016;-83
2022/08/22 09:42:05;;;;;;;2.85;1.00;;;25.10;97.00;;;;;;5071282;28;20105;-83
2022/08/22 09:45:05;;;;;;;4.10;1.10;;;25.10;97.20;;;;;;5071858;28;20025;-83
2022/08/22 09:47:41;;;;;;;2.33;0.90;;;25.50;97.00;;;;;;5067518;28;20409;-83
2022/08/22 09:50:45;;;;;;;2.22;0.90;;;25.60;96.30;;;;;;5066506;28;20370;-83
2022/08/22 09:53:48;;;;;;;2.97;1.13;;;25.70;95.80;;;;;;5057568;28;20037;-83
2022/08/22 09:56:14;;;;;;;3.80;1.13;;;25.80;95.50;;;;;;5065598;28;20029;-83
2022/08/22 09:59:09;;;;;;;3.50;1.10;;;25.90;95.70;;;;;;5068944;28;20425;-83
2022/08/22 10:01:48;;;;;;;3.15;1.30;;;26.10;96.10;;;;;;5056140;28;20592;-83
2022/08/22 10:04:13;;;;;;;2.70;1.17;;;26.10;95.70;;;;;;5075080;28;20048;-83
2022/08/22 10:06:54;;;;;;;2.92;0.85;;;26.20;95.80;;;;;;5073740;28;20039;-83
2022/08/22 10:09:27;;;;;;;2.63;1.20;;;26.40;95.50;;;;;;5070628;28;20077;-83
2022/08/22 10:12:18;;;;;;;4.07;0.93;;;26.50;94.70;;;;;;5071388;28;20028;-83
2022/08/22 10:14:49;;;;;;;4.07;1.00;;;26.60;94.70;;;;;;5070234;28;20049;-83
2022/08/22 10:17:35;;;;;;;2.63;1.00;;;26.70;93.70;;;;;;5067077;28;20050;-83
2022/08/22 10:20:23;;;;;;;2.05;0.80;;;26.70;93.20;;;;;;5068882;28;20033;-83
2022/08/22 10:23:12;;;;;;;1.95;0.80;;;26.80;92.80;;;;;;5070355;28;20052;-83
2022/08/22 10:26:00;;;;;;;1.98;0.70;;;26.90;92.60;;;;;;5070904;28;20032;-84
2022/08/22 10:28:42;;;;;;;3.38;1.20;;;27.10;92.90;;;;;;5067074;28;20052;-83
2022/08/22 10:31:24;;;;;;;4.38;0.88;;;27.30;92.20;;;;;;5068142;28;20020;-83
2022/08/22 10:33:55;;;;;;;2.22;0.80;;;27.60;91.10;;;;;;5062854;28;20033;-83
2022/08/22 10:36:34;;;;;;;2.45;0.77;;;27.70;90.30;;;;;;5069388;28;20043;-83
2022/08/22 10:39:02;;;;;;;2.03;0.90;;;27.80;91.00;;;;;;5066225;28;20020;-83
2022/08/22 10:41:35;;;;;;;2.65;1.00;;;27.80;90.70;;;;;;5069578;28;20031;-83
2022/08/22 10:44:17;;;;;;;2.97;1.10;;;28.00;90.50;;;;;;5086415;28;20401;-84
2022/08/22 10:47:14;;;;;;;3.85;1.50;;;28.10;88.60;;;;;;5086105;28;20020;-83
2022/08/22 10:50:08;;;;;;;2.78;1.10;;;27.80;90.10;;;;;;5070212;28;20029;-83
2022/08/22 10:52:46;;;;;;;2.90;0.90;;;27.80;90.30;;;;;;5054384;28;20036;-83
2022/08/22 10:55:16;;;;;;;2.35;0.93;;;28.10;89.90;;;;;;5085980;28;20024;-83
2022/08/22 10:58:11;;;;;;;2.08;1.00;;;28.30;90.00;;;;;;5070413;28;20035;-83
2022/08/22 11:01:01;;;;;;;2.47;0.90;;;28.40;85.20;;;;;;5069675;28;20028;-83
2022/08/22 11:03:38;;;;;;;3.03;1.13;;;28.30;88.50;;;;;;5064753;28;20496;-83
2022/08/22 11:06:14;;;;;;;1.60;0.77;;;28.50;87.10;;;;;;5069806;28;20400;-83
2022/08/22 11:09:07;;;;;;;2.13;1.10;;;28.50;87.40;;;;;;5070573;28;20021;-84
2022/08/22 11:11:45;;;;;;;2.75;0.85;;;28.90;87.10;;;;;;5068421;28;20058;-83
2022/08/22 11:14:33;;;;;;;1.65;0.73;;;29.00;85.60;;;;;;5067109;28;20031;-83
2022/08/22 11:17:19;;;;;;;2.40;0.75;;;28.90;86.80;;;;;;5064220;28;20552;-83
2022/08/22 11:20:22;;;;;;;1.90;0.90;;;28.70;80.70;;;;;;5070056;28;20055;-83
2022/08/22 11:23:02;;;;;;;1.88;0.60;;;28.50;81.60;;;;;;5066224;28;20104;-83
2022/08/22 11:25:45;;;;;;;2.38;1.00;;;28.50;83.30;;;;;;5082666;28;20024;-83
2022/08/22 11:28:47;;;;;;;2.25;0.98;;;28.60;84.30;;;;;;5068886;28;20020;-83
2022/08/22 11:31:28;;;;;;;3.25;1.00;;;28.70;84.50;;;;;;5069654;28;20055;-83
2022/08/22 11:34:14;;;;;;;3.47;0.80;;;28.90;82.80;;;;;;5064459;28;20024;-83
2022/08/22 11:36:55;;;;;;;2.42;0.90;;;28.80;81.80;;;;;;5068640;28;20122;-83
2022/08/22 11:39:36;;;;;;;2.65;0.73;;;29.20;81.40;;;;;;5069815;28;20032;-83
2022/08/22 11:42:11;;;;;;;2.25;0.80;;;29.00;78.40;;;;;;5079641;28;20038;-83
2022/08/22 11:44:50;;;;;;;1.65;0.73;;;29.40;79.60;;;;;;5067350;28;20037;-83
2022/08/22 11:47:20;;;;;;;2.65;0.65;;;29.80;75.80;;;;;;5069614;28;20021;-83
2022/08/22 11:49:58;;;;;;;1.57;0.70;;;29.90;78.00;;;;;;5068898;28;20020;-84
2022/08/22 11:52:32;;;;;;;1.95;1.00;;;30.00;78.60;;;;;;5069084;28;20488;-83
2022/08/22 11:55:09;;;;;;;2.08;0.80;;;30.00;76.90;;;;;;5061000;28;20121;-83
2022/08/22 11:57:48;;;;;;;1.98;0.68;;;30.30;78.00;;;;;;5070258;28;20512;-83
2022/08/22 12:00:14;;;;;;;2.28;0.80;;;30.40;75.90;;;;;;5066360;28;20498;-83
2022/08/22 12:03:04;;;;;;;2.00;0.80;;;30.10;74.50;;;;;;5065726;28;20032;-83
2022/08/22 12:05:38;;;;;;;2.65;0.80;;;29.60;75.60;;;;;;5059437;28;20039;-83
2022/08/22 12:08:28;;;;;;;3.28;0.80;;;29.20;77.20;;;;;;5065433;28;20013;-83
2022/08/22 12:11:08;;;;;;;1.98;0.90;;;28.70;76.70;;;;;;5069380;28;20016;-82
2022/08/22 12:13:37;;;;;;;2.63;0.80;;;28.90;78.20;;;;;;5062978;28;20068;-82
2022/08/22 12:16:30;;;;;;;2.17;0.88;;;28.40;76.40;;;;;;5085102;28;20554;-82
2022/08/22 12:19:14;;;;;;;2.25;0.60;;;28.30;76.30;;;;;;5058103;28;20029;-82
2022/08/22 12:22:02;;;;;;;2.92;0.80;;;28.40;76.20;;;;;;5063958;28;20108;-82
2022/08/22 12:24:30;;;;;;;1.80;0.85;;;28.10;75.70;;;;;;5068180;28;20103;-82
2022/08/22 12:27:36;;;;;;;1.98;0.90;;;28.30;76.40;;;;;;5069669;28;20048;-82
2022/08/22 12:30:18;;;;;;;1.95;0.80;;;28.00;77.30;;;;;;5062823;28;20021;-82
2022/08/22 12:32:59;;;;;;;1.40;0.60;;;27.70;75.70;;;;;;5069813;28;20438;-83
2022/08/22 12:35:49;;;;;;;2.17;0.88;;;27.50;75.90;;;;;;5057966;28;20028;-82
2022/08/22 12:38:20;;;;;;;1.50;0.60;;;27.30;76.40;;;;;;5067744;28;20071;-82
2022/08/22 12:41:08;;;;;;;;;;;27.10;78.70;;;;;;5069447;28;20024;-82
2022/08/22 12:43:37;;;;;;;1.23;0.65;;;27.00;78.40;;;;;;5082587;28;20519;-82
2022/08/22 12:46:21;;;;;;;2.03;0.80;;;26.60;78.00;;;;;;5087017;28;20025;-82
2022/08/22 12:49:28;;;;;;;1.95;0.75;;;26.40;79.00;;;;;;5084136;28;20048;-82
2022/08/22 12:51:56;;;;;;;1.60;0.80;;;26.30;80.40;;;;;;5069509;28;20123;-82
2022/08/22 12:54:46;;;;;;;1.63;0.90;;;26.20;81.50;;;;;;5065556;28;20021;-82
2022/08/22 12:57:18;;;;;;;1.95;0.82;;;26.50;81.30;;;;;;5068219;28;20020;-82
2022/08/22 12:59:50;;;;;;;2.10;1.02;;;27.40;80.00;;;;;;5073150;28;20078;-82
2022/08/22 13:02:23;;;;;;;2.45;0.70;;;28.10;77.90;;;;;;5072986;28;20039;-82
2022/08/22 13:04:58;;;;;;;1.73;0.65;;;28.80;74.80;;;;;;5065362;28;20024;-82
2022/08/22 13:07:29;;;;;;;1.17;0.70;;;29.60;74.10;;;;;;5063570;28;20163;-83
2022/08/22 13:10:18;;;;;;;1.85;1.00;;;29.70;75.00;;;;;;5067962;28;20508;-83
2022/08/22 13:12:52;;;;;;;2.20;0.95;;;30.20;75.00;;;;;;5068892;28;20060;-83
2022/08/22 13:15:44;;;;;;;1.42;0.68;;;30.60;73.90;;;;;;5085628;28;20020;-83
2022/08/22 13:18:24;;;;;;;1.65;0.63;;;31.00;73.10;;;;;;5070275;28;20082;-83
2022/08/22 13:20:52;;;;;;;3.03;0.75;;;31.20;71.20;;;;;;5066256;28;20495;-83
2022/08/22 13:23:18;;;;;;;2.03;0.80;;;31.00;70.70;;;;;;5071012;28;20017;-83
2022/08/22 13:26:19;;;;;;;1.75;0.73;;;31.40;70.10;;;;;;5072232;28;20435;-83
2022/08/22 13:28:59;;;;;;;1.88;0.52;;;31.60;68.60;;;;;;5069694;28;20054;-83
2022/08/22 13:31:31;;;;;;;1.17;0.65;;;31.40;68.80;;;;;;5071620;28;20111;-84
2022/08/22 13:34:04;;;;;;;2.60;0.73;;;32.00;70.00;;;;;;5067193;28;20020;-83
2022/08/22 13:36:39;;;;;;;1.42;0.60;;;32.00;66.60;;;;;;5068398;28;20047;-83
2022/08/22 13:39:14;;;;;;;1.52;0.60;;;32.30;66.80;;;;;;5067372;28;20028;-83
2022/08/22 13:41:55;;;;;;;1.08;0.50;;;32.60;65.30;;;;;;5072253;28;20374;-83
2022/08/22 13:44:34;;;;;;;1.05;0.45;;;32.20;64.20;;;;;;5071340;28;20447;-83
2022/08/22 13:47:13;;;;;;;1.42;0.60;;;32.40;65.40;;;;;;5066698;28;20028;-82
2022/08/22 13:49:43;;;;;;;1.23;0.47;;;31.70;63.80;;;;;;5071180;28;20032;-83
2022/08/22 13:52:23;;;;;;;1.52;0.73;;;32.30;66.00;;;;;;5069943;28;20055;-82
2022/08/22 13:54:51;;;;;;;1.50;0.80;;;32.70;64.70;;;;;;5070927;28;20032;-82
2022/08/22 13:57:37;;;;;;;1.77;0.63;;;32.60;65.70;;;;;;5085473;28;20107;-83
2022/08/22 14:00:18;;;;;;;2.85;0.63;;;32.40;64.70;;;;;;5068058;28;20028;-82
2022/08/22 14:03:02;;;;;;;;;;;32.10;63.20;;;;;;5066364;28;20021;-82
2022/08/22 14:05:39;;;;;;;1.90;0.60;;;32.50;65.60;;;;;;5071832;28;19912;-83